Time;durP1;ratioP1;P1;durP2;ratioP2;P2;SDS_P1;SDS_P2;PMS_P1;PMS_P2;Temp;Humidity;BMP_temperature;BMP_pressure;BME280_temperature;BME280_humidity;BME280_pressure;Samples;Min_cycle;Max_cycle;Signal;HPM_P1;HPM_P2
2021/09/02 00:00:40;;;;;;;7.18;4.35;;;13.40;99.90;;;;;;5046512;28;20030;-88
2021/09/02 00:03:06;;;;;;;7.78;4.38;;;13.40;99.90;;;;;;5046899;28;20068;-88
2021/09/02 00:05:32;;;;;;;7.47;4.28;;;13.30;99.90;;;;;;5029165;28;20874;-88
2021/09/02 00:07:57;;;;;;;6.32;3.85;;;13.40;99.90;;;;;;5045573;28;20021;-87
2021/09/02 00:10:23;;;;;;;10.18;4.88;;;13.30;99.90;;;;;;5045498;28;20083;-87
2021/09/02 00:12:49;;;;;;;9.73;4.78;;;13.30;99.90;;;;;;5027609;28;20033;-88
2021/09/02 00:15:14;;;;;;;7.07;4.05;;;13.30;99.90;;;;;;5026860;28;20044;-87
2021/09/02 00:17:40;;;;;;;9.70;4.40;;;13.30;99.90;;;;;;5025655;28;20097;-88
2021/09/02 00:20:06;;;;;;;6.68;3.58;;;13.20;99.90;;;;;;5027802;23;20487;-82
2021/09/02 00:22:32;;;;;;;9.85;4.15;;;13.20;99.90;;;;;;4996190;28;20030;-82
2021/09/02 00:24:58;;;;;;;7.40;3.97;;;13.20;99.90;;;;;;4983516;28;20027;-82
2021/09/02 00:27:24;;;;;;;6.70;3.47;;;13.30;99.90;;;;;;4992493;28;20030;-82
2021/09/02 00:29:49;;;;;;;9.65;3.90;;;13.30;99.90;;;;;;5004568;28;20054;-80
2021/09/02 00:32:17;;;;;;;8.10;3.78;;;13.20;99.90;;;;;;5002460;28;20038;-83
2021/09/02 00:34:43;;;;;;;7.50;3.78;;;13.10;99.90;;;;;;5000797;28;20113;-82
2021/09/02 00:37:09;;;;;;;7.22;3.80;;;13.20;99.90;;;;;;5006487;28;20057;-83
2021/09/02 00:39:35;;;;;;;8.45;3.72;;;13.20;99.90;;;;;;5021193;28;20069;-80
2021/09/02 00:42:01;;;;;;;7.20;3.40;;;13.20;99.90;;;;;;5024226;28;20033;-82
2021/09/02 00:44:45;;;;;;;7.32;4.13;;;13.20;99.90;;;;;;5032757;28;20036;-80
2021/09/02 00:47:20;;;;;;;7.65;4.00;;;13.10;99.90;;;;;;5004326;28;20081;-83
2021/09/02 00:49:46;;;;;;;7.50;4.10;;;13.10;99.90;;;;;;5018119;28;20502;-82
2021/09/02 00:52:21;;;;;;;7.63;3.97;;;13.10;99.90;;;;;;5002086;28;20030;-82
2021/09/02 00:54:49;;;;;;;6.68;3.42;;;13.10;99.90;;;;;;5013418;28;20054;-82
2021/09/02 00:57:21;;;;;;;6.40;3.60;;;13.00;99.90;;;;;;5021862;28;20026;-82
2021/09/02 00:59:49;;;;;;;;;;;13.10;99.90;;;;;;5003581;28;20026;-83
2021/09/02 01:02:15;;;;;;;7.72;3.83;;;13.10;99.90;;;;;;4999105;28;20331;-80
2021/09/02 01:04:41;;;;;;;8.63;3.92;;;13.00;99.90;;;;;;4999697;28;20034;-82
2021/09/02 01:07:07;;;;;;;7.60;3.95;;;13.00;99.90;;;;;;4997887;28;20026;-82
2021/09/02 01:09:33;;;;;;;7.63;4.10;;;13.00;99.90;;;;;;4998707;28;20026;-83
2021/09/02 01:12:19;;;;;;;7.15;3.83;;;13.00;99.90;;;;;;4997036;28;20076;-83
2021/09/02 01:14:45;;;;;;;7.38;4.15;;;12.90;99.90;;;;;;4998587;28;20058;-82
2021/09/02 01:17:10;;;;;;;7.15;3.88;;;12.90;99.90;;;;;;4999256;28;20391;-83
2021/09/02 01:19:36;;;;;;;7.40;3.65;;;12.90;99.90;;;;;;5013501;28;20034;-84
2021/09/02 01:22:01;;;;;;;6.70;4.05;;;12.90;99.90;;;;;;4997046;28;20054;-83
2021/09/02 01:24:27;;;;;;;6.35;3.58;;;12.90;99.90;;;;;;4996669;28;20434;-81
2021/09/02 01:26:52;;;;;;;6.72;4.07;;;12.80;99.90;;;;;;4998663;28;20038;-83
2021/09/02 01:29:22;;;;;;;5.72;3.75;;;12.80;99.90;;;;;;5011917;28;20379;-83
2021/09/02 01:31:48;;;;;;;8.07;3.83;;;12.80;99.90;;;;;;5010704;28;20034;-83
2021/09/02 01:34:17;;;;;;;8.55;4.05;;;12.80;99.90;;;;;;4998629;28;20069;-83
2021/09/02 01:36:42;;;;;;;11.00;4.40;;;12.70;99.90;;;;;;4998082;28;20081;-83
2021/09/02 01:39:08;;;;;;;6.95;3.60;;;12.70;99.90;;;;;;4998048;28;20019;-83
2021/09/02 01:41:33;;;;;;;10.48;4.38;;;12.70;99.90;;;;;;5011714;28;20034;-83
2021/09/02 01:43:59;;;;;;;8.15;4.20;;;12.60;99.90;;;;;;5012928;28;20044;-80
2021/09/02 01:46:24;;;;;;;7.38;3.97;;;12.60;99.90;;;;;;4994685;28;20041;-81
2021/09/02 01:48:54;;;;;;;7.28;3.90;;;12.50;99.90;;;;;;5011559;28;20062;-83
2021/09/02 01:51:19;;;;;;;8.50;4.10;;;12.60;99.90;;;;;;4997973;28;20042;-82
2021/09/02 01:53:45;;;;;;;6.32;3.85;;;12.60;99.90;;;;;;5012587;28;20098;-81
2021/09/02 01:56:10;;;;;;;9.07;4.07;;;12.50;99.90;;;;;;4996726;28;20029;-83
2021/09/02 01:58:36;;;;;;;7.72;4.25;;;12.50;99.90;;;;;;4995309;28;20050;-82
2021/09/02 02:01:02;;;;;;;7.70;4.47;;;12.50;99.90;;;;;;4998007;28;20054;-82
2021/09/02 02:03:28;;;;;;;6.72;4.00;;;12.50;99.90;;;;;;4997324;28;20054;-81
2021/09/02 02:05:53;;;;;;;10.52;4.45;;;12.40;99.90;;;;;;5011524;28;20030;-83
2021/09/02 02:08:19;;;;;;;8.55;4.38;;;12.40;99.90;;;;;;4997589;28;20026;-83
2021/09/02 02:10:44;;;;;;;8.23;4.45;;;12.40;99.90;;;;;;4997247;28;20029;-82
2021/09/02 02:13:10;;;;;;;6.70;4.20;;;12.40;99.90;;;;;;4996200;28;20349;-82
2021/09/02 02:15:36;;;;;;;7.65;4.35;;;12.40;99.90;;;;;;4996668;28;20077;-80
2021/09/02 02:18:02;;;;;;;7.63;4.65;;;12.40;99.90;;;;;;4997232;28;20033;-83
2021/09/02 02:20:27;;;;;;;7.32;3.97;;;12.40;99.90;;;;;;4995303;28;20337;-82
2021/09/02 02:22:53;;;;;;;9.90;4.53;;;12.30;99.90;;;;;;4992801;28;20031;-82
2021/09/02 02:25:19;;;;;;;7.70;4.57;;;12.30;99.90;;;;;;4995494;28;20033;-81
2021/09/02 02:27:45;;;;;;;9.18;4.90;;;12.30;99.90;;;;;;5015650;28;20443;-81
2021/09/02 02:30:14;;;;;;;8.00;4.30;;;12.20;99.90;;;;;;5012822;28;20026;-82
2021/09/02 02:32:40;;;;;;;9.80;4.82;;;12.30;99.90;;;;;;4983121;28;20042;-82
2021/09/02 02:35:06;;;;;;;9.52;4.35;;;12.30;99.90;;;;;;5003676;28;20057;-82
2021/09/02 02:37:32;;;;;;;7.93;4.55;;;12.20;99.90;;;;;;4998757;28;20055;-81
2021/09/02 02:39:57;;;;;;;7.97;4.90;;;12.20;99.90;;;;;;5013038;28;20391;-81
2021/09/02 02:42:23;;;;;;;8.32;4.57;;;12.20;99.90;;;;;;5014680;28;20113;-81
2021/09/02 02:44:49;;;;;;;10.75;4.75;;;12.10;99.90;;;;;;4998885;28;20042;-80
2021/09/02 02:47:14;;;;;;;7.65;4.75;;;12.10;99.90;;;;;;4998748;28;20545;-81
2021/09/02 02:49:41;;;;;;;8.02;5.03;;;12.10;99.90;;;;;;4996305;28;20018;-82
2021/09/02 02:52:08;;;;;;;10.18;5.10;;;12.10;99.90;;;;;;5012123;28;20036;-82
2021/09/02 02:54:33;;;;;;;8.93;4.72;;;12.10;99.90;;;;;;4998871;28;20081;-81
2021/09/02 02:56:59;;;;;;;7.95;4.85;;;12.10;99.90;;;;;;5012291;28;20434;-81
2021/09/02 02:59:25;;;;;;;8.25;4.68;;;12.10;99.90;;;;;;5008754;28;20061;-82
2021/09/02 03:01:50;;;;;;;8.80;5.05;;;12.10;99.90;;;;;;4991676;28;20030;-81
2021/09/02 03:04:16;;;;;;;8.25;4.88;;;12.00;99.90;;;;;;4998457;28;20023;-81
2021/09/02 03:06:41;;;;;;;8.75;4.65;;;12.00;99.90;;;;;;4997592;28;20058;-81
2021/09/02 03:09:07;;;;;;;8.45;4.75;;;12.00;99.90;;;;;;5011725;28;20038;-81
2021/09/02 03:11:33;;;;;;;7.82;4.75;;;12.00;99.90;;;;;;4995515;28;20293;-82
2021/09/02 03:13:59;;;;;;;9.55;5.30;;;12.00;99.90;;;;;;4995543;28;20030;-82
2021/09/02 03:16:25;;;;;;;8.35;5.20;;;12.00;99.90;;;;;;4995130;28;20017;-83
2021/09/02 03:18:51;;;;;;;8.15;4.78;;;12.00;99.90;;;;;;4994510;28;20053;-82
2021/09/02 03:21:17;;;;;;;9.52;5.63;;;12.00;99.90;;;;;;5012684;28;20025;-83
2021/09/02 03:23:42;;;;;;;9.85;5.15;;;11.90;99.90;;;;;;4997937;28;20037;-82
2021/09/02 03:26:08;;;;;;;8.55;4.95;;;11.90;99.90;;;;;;5015701;28;20018;-81
2021/09/02 03:28:33;;;;;;;9.45;5.05;;;11.90;99.90;;;;;;4997624;28;20464;-81
2021/09/02 03:30:59;;;;;;;8.85;4.35;;;11.90;99.90;;;;;;5030971;28;20033;-82
2021/09/02 03:33:25;;;;;;;8.85;4.88;;;11.80;99.90;;;;;;5039741;28;20099;-82
2021/09/02 03:35:50;;;;;;;11.52;5.35;;;11.90;99.90;;;;;;5039626;28;20386;-80
2021/09/02 03:38:16;;;;;;;11.38;4.57;;;11.80;99.90;;;;;;5023082;28;20117;-80
2021/09/02 03:40:42;;;;;;;8.52;4.80;;;11.80;99.90;;;;;;5017673;28;20034;-82
2021/09/02 03:43:07;;;;;;;7.35;4.55;;;11.80;99.90;;;;;;4998809;28;20034;-83
2021/09/02 03:45:33;;;;;;;7.68;4.65;;;11.80;99.90;;;;;;5013868;28;20029;-83
2021/09/02 03:47:59;;;;;;;9.07;5.25;;;11.80;99.90;;;;;;4997997;28;20038;-83
2021/09/02 03:50:24;;;;;;;9.27;4.90;;;11.80;99.90;;;;;;5015901;28;20034;-82
2021/09/02 03:52:50;;;;;;;11.07;4.82;;;11.80;99.90;;;;;;5015019;28;20045;-83
2021/09/02 03:55:16;;;;;;;12.65;5.63;;;11.80;99.90;;;;;;4998063;28;20113;-83
2021/09/02 03:57:42;;;;;;;8.05;4.70;;;11.80;99.90;;;;;;5014743;28;20030;-83
2021/09/02 04:00:10;;;;;;;8.60;4.90;;;11.80;99.90;;;;;;5013856;28;20105;-82
2021/09/02 04:02:36;;;;;;;8.90;4.63;;;11.70;99.90;;;;;;5014473;28;20029;-82
2021/09/02 04:05:04;;;;;;;9.18;4.90;;;11.80;99.90;;;;;;5014442;28;20096;-83
2021/09/02 04:07:30;;;;;;;10.55;5.47;;;11.70;99.90;;;;;;5015561;28;20037;-82
2021/09/02 04:09:55;;;;;;;11.13;4.78;;;11.70;99.90;;;;;;5002375;28;20038;-82
2021/09/02 04:12:21;;;;;;;9.02;5.13;;;11.70;99.90;;;;;;5016033;28;20105;-83
2021/09/02 04:14:46;;;;;;;7.45;4.68;;;11.70;99.90;;;;;;5013929;28;20060;-83
2021/09/02 04:17:12;;;;;;;10.43;4.93;;;11.60;99.90;;;;;;5014478;28;20034;-83
2021/09/02 04:19:38;;;;;;;8.90;5.03;;;11.60;99.90;;;;;;4997228;28;20033;-82
2021/09/02 04:22:04;;;;;;;8.68;5.07;;;11.60;99.90;;;;;;4997905;28;20170;-82
2021/09/02 04:24:29;;;;;;;11.95;5.57;;;11.50;99.90;;;;;;5013130;28;20068;-82
2021/09/02 04:26:55;;;;;;;8.98;4.78;;;11.50;99.90;;;;;;5015571;28;20030;-83
2021/09/02 04:29:21;;;;;;;13.93;5.20;;;11.50;99.90;;;;;;5013601;28;20499;-82
2021/09/02 04:31:48;;;;;;;14.10;4.90;;;11.50;99.90;;;;;;5033474;28;20470;-82
2021/09/02 04:34:14;;;;;;;12.93;5.85;;;11.40;99.90;;;;;;5026136;28;20033;-82
2021/09/02 04:36:40;;;;;;;16.35;5.32;;;11.40;99.90;;;;;;5019886;28;20040;-83
2021/09/02 04:39:06;;;;;;;12.27;5.35;;;11.40;99.90;;;;;;5019012;28;20486;-83
2021/09/02 04:41:32;;;;;;;12.80;5.72;;;11.40;99.90;;;;;;5017268;28;20038;-83
2021/09/02 04:43:58;;;;;;;10.75;5.72;;;11.40;99.90;;;;;;5018480;28;20041;-83
2021/09/02 04:46:24;;;;;;;12.43;5.50;;;11.40;99.90;;;;;;5019020;28;20044;-83
2021/09/02 04:48:49;;;;;;;9.93;5.32;;;11.50;99.90;;;;;;5019160;28;20061;-83
2021/09/02 04:51:16;;;;;;;9.57;4.93;;;11.40;99.90;;;;;;5015612;28;20483;-83
2021/09/02 04:53:43;;;;;;;15.85;5.47;;;11.40;99.90;;;;;;5018201;28;20036;-82
2021/09/02 04:56:09;;;;;;;10.13;5.78;;;11.40;99.90;;;;;;5017400;28;20117;-82
2021/09/02 04:58:35;;;;;;;9.32;5.18;;;11.40;99.90;;;;;;5017303;28;20022;-83
2021/09/02 05:01:01;;;;;;;10.10;5.55;;;11.50;99.90;;;;;;5017225;28;20454;-83
2021/09/02 05:03:26;;;;;;;9.90;5.30;;;11.50;99.90;;;;;;5000508;28;20045;-82
2021/09/02 05:05:52;;;;;;;10.20;5.53;;;11.40;99.90;;;;;;5018824;28;20030;-83
2021/09/02 05:08:18;;;;;;;11.65;5.68;;;11.40;99.90;;;;;;5018027;28;20026;-82
2021/09/02 05:10:43;;;;;;;11.32;5.63;;;11.40;99.90;;;;;;4982562;28;20129;-82
2021/09/02 05:13:09;;;;;;;10.35;4.85;;;11.40;99.90;;;;;;4998095;28;20061;-82
2021/09/02 05:15:34;;;;;;;9.50;5.63;;;11.40;99.90;;;;;;4996880;28;20034;-82
2021/09/02 05:18:00;;;;;;;10.32;5.70;;;11.50;99.90;;;;;;4999534;28;20100;-83
2021/09/02 05:20:26;;;;;;;10.90;5.53;;;11.50;99.90;;;;;;5000609;28;20096;-83
2021/09/02 05:22:51;;;;;;;10.45;5.18;;;11.50;99.90;;;;;;5001694;28;20034;-82
2021/09/02 05:25:17;;;;;;;9.93;5.38;;;11.60;99.90;;;;;;5013265;28;20018;-83
2021/09/02 05:27:43;;;;;;;10.00;5.25;;;11.60;99.90;;;;;;4998701;28;20033;-83
2021/09/02 05:30:11;;;;;;;8.90;5.53;;;11.60;99.90;;;;;;5010518;28;20029;-83
2021/09/02 05:32:38;;;;;;;10.13;5.35;;;11.70;99.90;;;;;;5020111;28;20021;-83
2021/09/02 05:35:04;;;;;;;11.68;6.05;;;11.70;99.90;;;;;;5006897;28;20044;-83
2021/09/02 05:37:30;;;;;;;8.63;5.20;;;11.80;99.90;;;;;;5016678;28;20030;-82
2021/09/02 05:39:55;;;;;;;11.07;5.55;;;11.80;99.90;;;;;;5017127;28;20037;-83
2021/09/02 05:42:21;;;;;;;9.32;5.05;;;11.90;99.90;;;;;;5000315;28;20030;-83
2021/09/02 05:44:46;;;;;;;8.43;4.90;;;11.90;99.90;;;;;;5001189;28;20030;-83
2021/09/02 05:47:13;;;;;;;10.15;5.07;;;12.00;99.90;;;;;;4998871;28;20022;-82
2021/09/02 05:49:39;;;;;;;9.88;5.45;;;12.10;99.90;;;;;;4996630;28;20372;-82
2021/09/02 05:52:05;;;;;;;11.52;6.65;;;12.20;99.90;;;;;;4997708;28;20033;-82
2021/09/02 05:54:31;;;;;;;14.65;8.25;;;12.20;99.90;;;;;;4996906;28;20116;-82
2021/09/02 05:56:56;;;;;;;13.13;7.97;;;12.30;99.90;;;;;;4996650;28;20028;-82
2021/09/02 05:59:22;;;;;;;12.07;7.70;;;12.30;99.90;;;;;;5013696;28;20112;-83
2021/09/02 06:01:47;;;;;;;17.42;8.63;;;12.50;99.90;;;;;;5012627;28;20065;-83
2021/09/02 06:04:13;;;;;;;14.52;8.60;;;12.50;99.90;;;;;;5014496;28;20025;-82
2021/09/02 06:06:38;;;;;;;13.63;8.27;;;12.60;99.90;;;;;;5014337;28;20034;-82
2021/09/02 06:09:04;;;;;;;15.88;9.20;;;12.60;99.90;;;;;;5013535;28;20037;-83
2021/09/02 06:11:30;;;;;;;14.80;7.80;;;12.70;99.90;;;;;;4983771;28;20030;-84
2021/09/02 06:13:56;;;;;;;13.95;7.70;;;12.80;99.90;;;;;;4997499;28;20030;-82
2021/09/02 06:16:22;;;;;;;14.40;8.20;;;13.00;99.90;;;;;;4996474;28;20731;-83
2021/09/02 06:18:48;;;;;;;16.05;8.32;;;13.10;99.90;;;;;;5000825;28;20049;-83
2021/09/02 06:21:14;;;;;;;12.00;6.97;;;13.00;99.90;;;;;;5014429;28;20609;-83
2021/09/02 06:23:39;;;;;;;15.38;7.50;;;13.10;99.90;;;;;;5103960;23;20043;-86
2021/09/02 06:26:05;;;;;;;15.32;7.40;;;13.20;99.90;;;;;;5020804;28;20161;-87
2021/09/02 06:28:31;;;;;;;12.38;7.38;;;13.30;99.90;;;;;;5021290;28;20022;-87
2021/09/02 06:30:57;;;;;;;13.98;8.02;;;13.40;99.90;;;;;;5005213;28;20085;-87
2021/09/02 06:33:23;;;;;;;11.65;7.22;;;13.50;99.90;;;;;;5006334;28;20045;-87
2021/09/02 06:35:48;;;;;;;13.05;7.35;;;13.60;99.90;;;;;;5021835;28;20037;-87
2021/09/02 06:38:14;;;;;;;14.38;7.53;;;13.70;99.90;;;;;;5004529;28;20080;-87
2021/09/02 06:40:40;;;;;;;12.45;7.50;;;13.80;99.90;;;;;;5008034;28;20192;-86
2021/09/02 06:43:06;;;;;;;15.77;7.75;;;13.80;99.90;;;;;;5004753;28;20045;-87
2021/09/02 06:45:31;;;;;;;14.68;7.75;;;13.80;99.90;;;;;;5020072;28;20057;-87
2021/09/02 06:47:57;;;;;;;10.70;6.78;;;13.90;99.90;;;;;;5004238;28;20425;-86
2021/09/02 06:50:23;;;;;;;13.90;6.97;;;14.00;99.90;;;;;;5003165;28;20030;-87
2021/09/02 06:52:49;;;;;;;12.77;7.30;;;14.10;99.90;;;;;;5003467;28;20034;-87
2021/09/02 06:55:15;;;;;;;12.50;7.50;;;14.00;99.90;;;;;;5001954;28;20086;-86
2021/09/02 06:57:41;;;;;;;10.68;6.95;;;14.00;99.90;;;;;;5019215;28;20026;-87
2021/09/02 07:00:08;;;;;;;14.25;7.13;;;14.10;99.90;;;;;;5020095;28;20122;-87
2021/09/02 07:02:34;;;;;;;13.32;7.05;;;14.20;99.90;;;;;;5003743;28;20037;-87
2021/09/02 07:05:00;;;;;;;11.90;7.25;;;14.30;99.90;;;;;;5018814;28;20061;-87
2021/09/02 07:07:26;;;;;;;11.27;6.43;;;14.30;99.90;;;;;;5003639;28;20031;-87
2021/09/02 07:09:52;;;;;;;12.98;6.60;;;14.40;99.90;;;;;;5017642;28;20037;-87
2021/09/02 07:12:17;;;;;;;13.27;7.28;;;14.60;99.90;;;;;;5005989;28;20034;-87
2021/09/02 07:14:43;;;;;;;13.02;6.97;;;14.80;99.90;;;;;;5007792;28;20026;-87
2021/09/02 07:17:09;;;;;;;10.77;6.82;;;14.90;99.90;;;;;;5000156;28;20026;-87
2021/09/02 07:19:34;;;;;;;13.60;6.07;;;15.00;99.90;;;;;;4997285;28;20058;-86
2021/09/02 07:22:00;;;;;;;10.45;6.40;;;15.10;99.90;;;;;;4993294;28;20030;-87
2021/09/02 07:24:26;;;;;;;12.57;6.55;;;15.20;99.90;;;;;;5011439;28;20041;-87
2021/09/02 07:26:51;;;;;;;10.85;6.40;;;15.30;99.90;;;;;;4995589;28;20096;-88
2021/09/02 07:29:18;;;;;;;10.05;5.57;;;15.30;99.90;;;;;;5018193;28;20029;-87
2021/09/02 07:31:44;;;;;;;11.70;6.10;;;15.40;99.90;;;;;;5021570;28;20053;-88
2021/09/02 07:34:09;;;;;;;10.00;5.38;;;15.60;99.90;;;;;;4984656;28;20027;-88
2021/09/02 07:36:36;;;;;;;8.32;5.03;;;15.70;99.90;;;;;;4990821;28;20373;-87
2021/09/02 07:39:03;;;;;;;9.00;5.07;;;15.80;99.90;;;;;;4991500;28;20050;-87
2021/09/02 07:41:29;;;;;;;9.93;5.20;;;16.00;99.90;;;;;;4994329;28;20162;-87
2021/09/02 07:43:57;;;;;;;9.10;4.93;;;16.20;99.90;;;;;;4996063;28;20105;-87
2021/09/02 07:46:23;;;;;;;9.25;5.00;;;16.20;99.90;;;;;;4994634;28;20026;-88
2021/09/02 07:48:52;;;;;;;8.30;4.80;;;16.30;99.90;;;;;;5004672;28;20026;-87
2021/09/02 07:51:19;;;;;;;9.10;5.05;;;16.40;99.90;;;;;;5005339;28;20082;-88
2021/09/02 07:53:45;;;;;;;8.18;4.47;;;16.50;99.90;;;;;;5005717;28;20026;-88
2021/09/02 07:56:11;;;;;;;10.18;5.05;;;16.60;99.90;;;;;;5004343;28;20030;-87
2021/09/02 07:58:37;;;;;;;7.65;4.53;;;16.70;99.90;;;;;;5020390;28;20030;-87
2021/09/02 08:01:04;;;;;;;8.38;4.63;;;16.80;99.90;;;;;;5004988;28;20038;-88
2021/09/02 08:03:29;;;;;;;7.47;4.30;;;16.90;99.90;;;;;;5004084;28;20030;-88
2021/09/02 08:05:55;;;;;;;8.85;4.68;;;16.90;99.90;;;;;;5006076;28;20441;-88
2021/09/02 08:08:21;;;;;;;8.05;4.43;;;17.00;99.90;;;;;;5007064;28;20036;-87
2021/09/02 08:10:48;;;;;;;10.52;4.85;;;17.00;99.90;;;;;;5023615;28;20072;-87
2021/09/02 08:13:15;;;;;;;8.68;4.18;;;17.10;99.90;;;;;;5017626;28;20037;-87
2021/09/02 08:15:41;;;;;;;8.60;4.50;;;17.30;99.90;;;;;;5011551;28;20037;-87
2021/09/02 08:18:08;;;;;;;7.45;4.28;;;17.30;99.90;;;;;;4994508;28;20030;-88
2021/09/02 08:20:35;;;;;;;7.68;4.18;;;17.50;99.90;;;;;;5010916;28;20030;-88
2021/09/02 08:23:02;;;;;;;8.05;4.63;;;17.50;99.90;;;;;;5013723;28;20034;-87
2021/09/02 08:25:28;;;;;;;9.52;4.80;;;17.70;99.90;;;;;;5011020;28;20030;-87
2021/09/02 08:27:54;;;;;;;8.70;4.30;;;17.80;99.90;;;;;;5025046;28;20027;-87
2021/09/02 08:30:22;;;;;;;8.88;4.32;;;17.70;99.90;;;;;;5030942;28;20037;-86
2021/09/02 08:32:48;;;;;;;7.20;4.53;;;17.80;99.90;;;;;;5011115;28;20037;-87
2021/09/02 08:35:22;;;;;;;7.43;4.25;;;18.00;99.90;;;;;;5026233;28;20030;-87
2021/09/02 08:37:48;;;;;;;9.25;4.38;;;18.10;99.90;;;;;;5010805;28;20042;-87
2021/09/02 08:40:17;;;;;;;6.80;4.00;;;18.30;99.90;;;;;;5010967;28;20006;-88
2021/09/02 08:42:43;;;;;;;9.73;4.90;;;18.30;99.90;;;;;;5006478;28;20037;-87
2021/09/02 08:45:09;;;;;;;10.15;4.32;;;18.30;99.90;;;;;;5018290;28;20050;-88
2021/09/02 08:47:37;;;;;;;9.07;4.85;;;18.60;99.90;;;;;;4986836;28;20026;-88
2021/09/02 08:50:04;;;;;;;7.47;4.82;;;18.80;99.90;;;;;;4982562;28;20078;-88
2021/09/02 08:52:30;;;;;;;10.57;4.43;;;18.80;99.90;;;;;;5009334;28;20038;-87
2021/09/02 08:54:57;;;;;;;8.55;4.47;;;18.90;99.90;;;;;;4999532;28;20045;-88
2021/09/02 08:57:23;;;;;;;10.00;4.68;;;19.00;99.90;;;;;;5024186;28;20119;-88
2021/09/02 08:59:48;;;;;;;9.40;5.28;;;19.20;99.90;;;;;;5008028;28;20223;-88
2021/09/02 09:02:31;;;;;;;7.82;4.40;;;19.10;99.90;;;;;;5007348;28;20085;-88
2021/09/02 09:05:05;;;;;;;7.45;4.57;;;19.20;99.90;;;;;;5006381;28;20045;-88
2021/09/02 09:07:38;;;;;;;8.85;4.80;;;19.30;99.90;;;;;;5006506;28;20435;-88
2021/09/02 09:10:13;;;;;;;8.80;4.07;;;19.30;99.90;;;;;;5022285;28;20023;-87
2021/09/02 09:12:50;;;;;;;7.03;3.88;;;19.40;99.90;;;;;;5021852;28;20049;-88
2021/09/02 09:15:18;;;;;;;8.77;4.40;;;19.60;99.90;;;;;;5018319;28;20110;-88
2021/09/02 09:17:45;;;;;;;7.93;4.60;;;19.70;99.90;;;;;;4987504;28;20038;-88
2021/09/02 09:20:11;;;;;;;7.72;4.63;;;19.70;99.90;;;;;;4986130;28;20027;-88
2021/09/02 09:22:37;;;;;;;8.30;4.15;;;19.90;99.90;;;;;;5014082;28;20094;-88
2021/09/02 09:25:06;;;;;;;7.13;4.32;;;20.00;99.90;;;;;;5026330;28;20062;-88
2021/09/02 09:27:35;;;;;;;8.57;4.40;;;20.00;99.90;;;;;;5026645;28;20057;-88
2021/09/02 09:30:06;;;;;;;7.47;4.47;;;20.20;99.90;;;;;;5025216;28;20052;-88
2021/09/02 09:32:37;;;;;;;7.25;4.18;;;20.20;99.90;;;;;;5024316;28;20034;-88
2021/09/02 09:35:04;;;;;;;6.53;3.85;;;20.00;99.90;;;;;;5027022;28;20601;-88
2021/09/02 09:37:30;;;;;;;5.72;3.53;;;20.20;99.90;;;;;;5024427;28;20089;-88
2021/09/02 09:40:09;;;;;;;7.45;4.20;;;20.40;99.90;;;;;;5023768;28;20068;-88
2021/09/02 09:42:35;;;;;;;8.32;4.05;;;20.50;99.90;;;;;;5025538;28;20108;-88
2021/09/02 09:45:01;;;;;;;9.27;4.18;;;20.60;99.90;;;;;;5026446;28;20026;-88
2021/09/02 09:47:33;;;;;;;6.13;3.85;;;20.70;99.90;;;;;;5026203;28;20038;-88
2021/09/02 09:50:00;;;;;;;7.32;4.10;;;20.80;99.90;;;;;;5025198;28;20044;-87
2021/09/02 09:52:32;;;;;;;6.10;3.70;;;20.90;99.90;;;;;;5023707;28;20033;-88
2021/09/02 09:55:12;;;;;;;8.07;3.88;;;21.00;99.90;;;;;;5024643;28;20026;-88
2021/09/02 09:57:39;;;;;;;8.35;4.07;;;21.20;99.90;;;;;;5005530;28;20026;-88
2021/09/02 10:00:25;;;;;;;7.93;3.70;;;21.20;99.90;;;;;;5004755;28;20054;-88
2021/09/02 10:02:51;;;;;;;6.15;3.67;;;21.30;99.90;;;;;;5006080;28;20034;-87
2021/09/02 10:05:21;;;;;;;6.93;4.03;;;21.50;99.90;;;;;;5008896;28;20137;-88
2021/09/02 10:07:48;;;;;;;6.40;3.55;;;21.60;99.90;;;;;;5025304;28;20029;-87
2021/09/02 10:10:16;;;;;;;6.95;4.22;;;21.60;99.90;;;;;;5025721;28;20030;-88
2021/09/02 10:12:44;;;;;;;6.75;3.85;;;21.40;99.90;;;;;;5025043;28;20486;-88
2021/09/02 10:15:13;;;;;;;6.35;3.60;;;21.50;99.90;;;;;;5025897;28;20054;-87
2021/09/02 10:17:40;;;;;;;7.22;3.83;;;21.50;99.90;;;;;;5024600;28;20465;-86
2021/09/02 10:20:17;;;;;;;8.70;3.78;;;21.70;99.90;;;;;;5018787;28;20518;-88
2021/09/02 10:22:44;;;;;;;6.53;3.92;;;21.90;99.90;;;;;;5015643;28;20057;-87
2021/09/02 10:25:40;;;;;;;8.43;4.18;;;22.00;99.90;;;;;;5023939;28;20034;-87
2021/09/02 10:28:10;;;;;;;6.60;3.50;;;22.10;99.90;;;;;;5024996;28;20084;-88
2021/09/02 10:30:51;;;;;;;7.38;3.80;;;22.10;99.10;;;;;;5024822;28;20112;-87
2021/09/02 10:33:38;;;;;;;6.80;4.00;;;22.10;99.70;;;;;;5024424;28;20085;-87
2021/09/02 10:36:10;;;;;;;7.15;3.15;;;22.20;99.90;;;;;;5024285;28;20034;-88
2021/09/02 10:38:50;;;;;;;6.22;3.42;;;22.30;99.50;;;;;;5023441;28;20021;-87
2021/09/02 10:41:35;;;;;;;5.72;3.22;;;22.50;99.30;;;;;;5022269;28;20113;-88
2021/09/02 10:44:03;;;;;;;5.85;3.05;;;22.40;98.00;;;;;;5023502;28;20022;-88
2021/09/02 10:46:32;;;;;;;6.00;3.00;;;22.70;98.30;;;;;;5023272;28;20022;-87
2021/09/02 10:49:13;;;;;;;5.50;3.22;;;22.60;97.80;;;;;;5017180;28;20018;-88
2021/09/02 10:51:41;;;;;;;6.03;2.90;;;22.70;97.60;;;;;;5025613;28;20034;-87
2021/09/02 10:54:09;;;;;;;5.82;3.45;;;22.80;97.70;;;;;;4999522;28;20096;-88
2021/09/02 10:57:04;;;;;;;5.53;3.10;;;22.90;97.00;;;;;;5001271;28;20383;-87
2021/09/02 10:59:42;;;;;;;7.10;2.97;;;22.90;96.50;;;;;;5020255;28;20140;-89
2021/09/02 11:02:29;;;;;;;4.47;2.70;;;23.00;96.50;;;;;;5022666;28;20052;-87
2021/09/02 11:04:59;;;;;;;6.72;3.00;;;23.20;96.20;;;;;;5012673;28;20025;-88
2021/09/02 11:07:54;;;;;;;8.55;3.70;;;23.30;96.00;;;;;;5023366;28;20088;-88
2021/09/02 11:10:21;;;;;;;5.50;3.05;;;23.40;95.60;;;;;;4991153;28;20069;-88
2021/09/02 11:12:57;;;;;;;5.45;3.10;;;23.50;95.30;;;;;;5004274;28;20026;-87
2021/09/02 11:15:24;;;;;;;6.35;2.95;;;23.70;95.90;;;;;;5005568;28;20026;-87
2021/09/02 11:17:58;;;;;;;4.90;2.70;;;23.70;94.20;;;;;;5005904;28;20037;-87
2021/09/02 11:20:28;;;;;;;5.75;2.88;;;23.70;94.30;;;;;;5006397;28;20403;-88
2021/09/02 11:23:14;;;;;;;5.07;2.65;;;23.70;93.40;;;;;;5006576;28;20034;-88
2021/09/02 11:25:47;;;;;;;6.03;2.80;;;23.80;93.90;;;;;;5023175;28;20025;-89
2021/09/02 11:28:13;;;;;;;6.47;3.05;;;23.90;92.80;;;;;;5026003;28;20036;-88
2021/09/02 11:30:40;;;;;;;8.75;3.00;;;23.80;93.90;;;;;;5029539;28;20510;-87
2021/09/02 11:33:06;;;;;;;7.07;2.80;;;24.10;93.00;;;;;;5029689;28;20014;-88
2021/09/02 11:35:33;;;;;;;5.18;2.70;;;24.30;93.10;;;;;;5007778;28;20031;-88
2021/09/02 11:37:59;;;;;;;4.85;2.50;;;24.40;92.00;;;;;;5006963;28;20034;-87
2021/09/02 11:40:31;;;;;;;5.30;2.65;;;24.40;91.20;;;;;;5006241;28;20084;-89
2021/09/02 11:42:58;;;;;;;4.95;2.58;;;24.30;90.20;;;;;;5018687;28;20049;-89
2021/09/02 11:45:30;;;;;;;5.43;2.67;;;23.90;90.90;;;;;;5024441;28;20058;-88
2021/09/02 11:48:05;;;;;;;4.70;2.70;;;23.90;91.90;;;;;;5024903;28;20025;-88
2021/09/02 11:50:30;;;;;;;5.45;2.80;;;24.10;92.30;;;;;;5023245;28;20080;-88
2021/09/02 11:52:56;;;;;;;8.10;3.10;;;23.80;91.40;;;;;;5024218;28;20033;-87
2021/09/02 11:55:28;;;;;;;6.18;2.90;;;23.80;92.90;;;;;;5022926;28;20029;-87
2021/09/02 11:58:00;;;;;;;5.53;2.75;;;23.80;92.50;;;;;;5021052;28;20059;-87
2021/09/02 12:00:27;;;;;;;5.43;2.65;;;24.20;92.20;;;;;;5017997;28;20038;-89
2021/09/02 12:02:58;;;;;;;7.50;2.30;;;24.30;90.90;;;;;;5003185;28;20368;-88
2021/09/02 12:05:36;;;;;;;6.70;2.70;;;24.60;91.40;;;;;;5001475;28;20034;-88
2021/09/02 12:08:09;;;;;;;5.35;2.72;;;24.30;90.90;;;;;;5002123;28;20030;-87
2021/09/02 12:10:37;;;;;;;5.25;2.83;;;24.30;91.30;;;;;;5017820;28;20081;-87
2021/09/02 12:13:20;;;;;;;7.70;3.22;;;24.50;91.10;;;;;;5021649;28;20026;-88
2021/09/02 12:16:08;;;;;;;6.93;2.60;;;24.80;89.60;;;;;;5022761;28;20113;-88
2021/09/02 12:18:35;;;;;;;5.18;2.70;;;24.90;90.50;;;;;;5021938;28;20033;-87
2021/09/02 12:21:14;;;;;;;5.38;2.40;;;25.10;90.60;;;;;;5003926;28;20027;-88
2021/09/02 12:23:52;;;;;;;8.18;2.78;;;24.90;90.10;;;;;;5021051;23;20058;-82
2021/09/02 12:26:20;;;;;;;5.90;3.22;;;25.30;89.80;;;;;;4995945;28;20027;-84
2021/09/02 12:28:48;;;;;;;5.35;2.80;;;25.50;88.30;;;;;;5003192;28;20118;-84
2021/09/02 12:31:18;;;;;;;6.80;3.13;;;25.60;90.20;;;;;;5004563;28;20419;-84
2021/09/02 12:34:01;;;;;;;5.03;2.75;;;25.70;87.60;;;;;;4987395;28;20114;-84
2021/09/02 12:36:28;;;;;;;5.72;2.60;;;25.70;85.70;;;;;;4979962;28;20037;-82
2021/09/02 12:38:54;;;;;;;4.80;2.47;;;25.30;86.70;;;;;;5015128;28;20112;-84
2021/09/02 12:41:22;;;;;;;6.72;2.85;;;25.50;86.00;;;;;;5017870;28;20056;-84
2021/09/02 12:44:12;;;;;;;5.00;2.63;;;25.60;85.60;;;;;;5016572;28;20057;-84
2021/09/02 12:46:53;;;;;;;5.63;3.00;;;25.40;88.00;;;;;;5003085;28;20027;-83
2021/09/02 12:49:20;;;;;;;5.30;2.65;;;25.80;88.20;;;;;;4979120;28;20440;-84